sensor_id;sensor_type;location;lat;lon;timestamp;temperature;humidity
1179;DHT22;578;48.408;10.004;2022-08-11T00:01:59;15.90;67.70
1179;DHT22;578;48.408;10.004;2022-08-11T00:04:27;16.30;65.20
1179;DHT22;578;48.408;10.004;2022-08-11T00:07:01;16.20;66.10
1179;DHT22;578;48.408;10.004;2022-08-11T00:09:32;16.30;66.40
1179;DHT22;578;48.408;10.004;2022-08-11T00:12:01;16.00;67.70
1179;DHT22;578;48.408;10.004;2022-08-11T00:14:30;16.00;68.60
1179;DHT22;578;48.408;10.004;2022-08-11T00:17:01;16.00;66.40
1179;DHT22;578;48.408;10.004;2022-08-11T00:19:29;16.10;68.70
1179;DHT22;578;48.408;10.004;2022-08-11T00:21:58;16.00;69.10
1179;DHT22;578;48.408;10.004;2022-08-11T00:24:31;15.90;67.30
1179;DHT22;578;48.408;10.004;2022-08-11T00:26:58;15.80;68.60
1179;DHT22;578;48.408;10.004;2022-08-11T00:29:26;15.70;69.80
1179;DHT22;578;48.408;10.004;2022-08-11T00:31:55;15.60;68.60
1179;DHT22;578;48.408;10.004;2022-08-11T00:34:26;15.60;71.70
1179;DHT22;578;48.408;10.004;2022-08-11T00:36:59;15.60;71.80
1179;DHT22;578;48.408;10.004;2022-08-11T00:39:26;15.50;71.20
1179;DHT22;578;48.408;10.004;2022-08-11T00:42:09;15.50;71.90
1179;DHT22;578;48.408;10.004;2022-08-11T00:44:54;15.40;71.20
1179;DHT22;578;48.408;10.004;2022-08-11T00:47:38;15.50;70.70
1179;DHT22;578;48.408;10.004;2022-08-11T00:50:16;15.40;72.90
1179;DHT22;578;48.408;10.004;2022-08-11T00:52:58;15.30;74.30
1179;DHT22;578;48.408;10.004;2022-08-11T00:55:58;15.50;72.20
1179;DHT22;578;48.408;10.004;2022-08-11T01:01:53;15.50;70.50
1179;DHT22;578;48.408;10.004;2022-08-11T01:17:38;15.40;71.50
1179;DHT22;578;48.408;10.004;2022-08-11T01:20:38;15.30;72.80
1179;DHT22;578;48.408;10.004;2022-08-11T01:23:47;15.40;73.30
1179;DHT22;578;48.408;10.004;2022-08-11T01:27:03;15.20;73.40
1179;DHT22;578;48.408;10.004;2022-08-11T01:39:34;15.10;76.30
1179;DHT22;578;48.408;10.004;2022-08-11T01:45:41;15.20;74.70
1179;DHT22;578;48.408;10.004;2022-08-11T01:48:21;15.20;74.70
1179;DHT22;578;48.408;10.004;2022-08-11T01:51:02;15.10;75.00
1179;DHT22;578;48.408;10.004;2022-08-11T01:53:38;15.00;76.00
1179;DHT22;578;48.408;10.004;2022-08-11T01:56:34;15.20;75.20
1179;DHT22;578;48.408;10.004;2022-08-11T01:59:10;15.20;74.70
1179;DHT22;578;48.408;10.004;2022-08-11T02:02:03;15.00;75.20
1179;DHT22;578;48.408;10.004;2022-08-11T02:04:37;15.10;74.50
1179;DHT22;578;48.408;10.004;2022-08-11T02:07:14;15.10;75.80
1179;DHT22;578;48.408;10.004;2022-08-11T02:10:02;15.00;75.60
1179;DHT22;578;48.408;10.004;2022-08-11T02:12:57;15.00;76.60
1179;DHT22;578;48.408;10.004;2022-08-11T02:15:28;14.90;76.60
1179;DHT22;578;48.408;10.004;2022-08-11T02:18:05;14.90;78.40
1179;DHT22;578;48.408;10.004;2022-08-11T02:20:41;15.00;76.70
1179;DHT22;578;48.408;10.004;2022-08-11T02:23:31;15.20;74.90
1179;DHT22;578;48.408;10.004;2022-08-11T02:26:09;15.20;75.70
1179;DHT22;578;48.408;10.004;2022-08-11T02:28:48;15.70;72.40
1179;DHT22;578;48.408;10.004;2022-08-11T02:31:24;15.50;72.80
1179;DHT22;578;48.408;10.004;2022-08-11T02:34:16;15.50;73.40
1179;DHT22;578;48.408;10.004;2022-08-11T02:36:54;15.40;74.60
1179;DHT22;578;48.408;10.004;2022-08-11T02:39:27;15.50;74.00
1179;DHT22;578;48.408;10.004;2022-08-11T02:41:57;15.40;74.00
1179;DHT22;578;48.408;10.004;2022-08-11T02:44:58;15.60;73.50
1179;DHT22;578;48.408;10.004;2022-08-11T02:47:38;15.30;74.00
1179;DHT22;578;48.408;10.004;2022-08-11T02:50:14;15.70;72.50
1179;DHT22;578;48.408;10.004;2022-08-11T02:52:50;15.60;73.10
1179;DHT22;578;48.408;10.004;2022-08-11T02:55:29;15.70;73.50
1179;DHT22;578;48.408;10.004;2022-08-11T02:58:02;15.60;73.40
1179;DHT22;578;48.408;10.004;2022-08-11T03:00:44;15.60;73.90
1179;DHT22;578;48.408;10.004;2022-08-11T03:03:19;15.80;72.10
1179;DHT22;578;48.408;10.004;2022-08-11T03:06:02;15.60;73.00
1179;DHT22;578;48.408;10.004;2022-08-11T03:08:43;15.50;74.50
1179;DHT22;578;48.408;10.004;2022-08-11T03:11:21;15.30;74.10
1179;DHT22;578;48.408;10.004;2022-08-11T03:14:15;15.10;75.70
1179;DHT22;578;48.408;10.004;2022-08-11T03:17:12;15.10;76.80
1179;DHT22;578;48.408;10.004;2022-08-11T03:19:50;15.10;75.00
1179;DHT22;578;48.408;10.004;2022-08-11T03:22:23;15.00;77.80
1179;DHT22;578;48.408;10.004;2022-08-11T03:25:02;14.80;78.50
1179;DHT22;578;48.408;10.004;2022-08-11T03:27:35;14.80;77.20
1179;DHT22;578;48.408;10.004;2022-08-11T03:30:09;15.20;75.10
1179;DHT22;578;48.408;10.004;2022-08-11T03:32:45;15.30;76.20
1179;DHT22;578;48.408;10.004;2022-08-11T03:35:38;15.10;77.60
1179;DHT22;578;48.408;10.004;2022-08-11T03:38:09;15.00;76.20
1179;DHT22;578;48.408;10.004;2022-08-11T03:40:58;15.00;77.80
1179;DHT22;578;48.408;10.004;2022-08-11T03:44:03;14.90;80.10
1179;DHT22;578;48.408;10.004;2022-08-11T03:46:50;15.00;77.20
1179;DHT22;578;48.408;10.004;2022-08-11T03:49:29;14.90;79.20
1179;DHT22;578;48.408;10.004;2022-08-11T03:52:07;14.90;78.40
1179;DHT22;578;48.408;10.004;2022-08-11T03:54:43;15.00;75.80
1179;DHT22;578;48.408;10.004;2022-08-11T04:00:28;15.40;74.80
1179;DHT22;578;48.408;10.004;2022-08-11T04:03:26;15.20;76.30
1179;DHT22;578;48.408;10.004;2022-08-11T04:06:25;15.30;74.60
1179;DHT22;578;48.408;10.004;2022-08-11T04:15:00;15.00;76.20
1179;DHT22;578;48.408;10.004;2022-08-11T04:18:17;14.90;78.10
1179;DHT22;578;48.408;10.004;2022-08-11T04:20:58;14.90;78.70
1179;DHT22;578;48.408;10.004;2022-08-11T04:23:47;14.80;77.50
1179;DHT22;578;48.408;10.004;2022-08-11T04:26:47;14.90;77.20
1179;DHT22;578;48.408;10.004;2022-08-11T04:29:30;14.80;78.20
1179;DHT22;578;48.408;10.004;2022-08-11T04:32:08;14.60;79.60
1179;DHT22;578;48.408;10.004;2022-08-11T04:34:50;14.60;79.10
1179;DHT22;578;48.408;10.004;2022-08-11T04:37:48;14.70;78.90
1179;DHT22;578;48.408;10.004;2022-08-11T04:40:48;14.90;77.50
1179;DHT22;578;48.408;10.004;2022-08-11T04:43:56;14.90;79.30
1179;DHT22;578;48.408;10.004;2022-08-11T04:46:56;14.70;79.60
1179;DHT22;578;48.408;10.004;2022-08-11T04:49:48;14.90;79.40
1179;DHT22;578;48.408;10.004;2022-08-11T04:56:12;14.60;82.40
1179;DHT22;578;48.408;10.004;2022-08-11T04:59:35;14.70;82.20
1179;DHT22;578;48.408;10.004;2022-08-11T05:05:22;15.00;81.40
1179;DHT22;578;48.408;10.004;2022-08-11T05:08:41;15.10;79.40
1179;DHT22;578;48.408;10.004;2022-08-11T05:11:51;15.50;77.00
1179;DHT22;578;48.408;10.004;2022-08-11T05:14:30;15.70;78.00
1179;DHT22;578;48.408;10.004;2022-08-11T05:17:25;15.70;76.60
1179;DHT22;578;48.408;10.004;2022-08-11T05:20:11;15.80;75.80
1179;DHT22;578;48.408;10.004;2022-08-11T05:23:00;15.80;75.70
1179;DHT22;578;48.408;10.004;2022-08-11T05:25:53;16.00;76.10
1179;DHT22;578;48.408;10.004;2022-08-11T05:28:50;16.00;74.60
1179;DHT22;578;48.408;10.004;2022-08-11T05:31:38;16.00;76.50
1179;DHT22;578;48.408;10.004;2022-08-11T05:34:25;16.20;75.00
1179;DHT22;578;48.408;10.004;2022-08-11T05:37:13;16.40;73.60
1179;DHT22;578;48.408;10.004;2022-08-11T05:39:44;16.60;71.50
1179;DHT22;578;48.408;10.004;2022-08-11T05:42:31;16.60;72.70
1179;DHT22;578;48.408;10.004;2022-08-11T05:45:18;16.70;72.20
1179;DHT22;578;48.408;10.004;2022-08-11T05:48:04;16.80;72.40
1179;DHT22;578;48.408;10.004;2022-08-11T05:50:52;17.20;70.10
1179;DHT22;578;48.408;10.004;2022-08-11T05:53:51;17.60;68.20
1179;DHT22;578;48.408;10.004;2022-08-11T05:56:42;18.10;67.50
1179;DHT22;578;48.408;10.004;2022-08-11T05:59:13;18.80;64.70
1179;DHT22;578;48.408;10.004;2022-08-11T06:01:43;19.00;64.10
1179;DHT22;578;48.408;10.004;2022-08-11T06:04:16;19.40;62.90
1179;DHT22;578;48.408;10.004;2022-08-11T06:06:50;20.30;61.60
1179;DHT22;578;48.408;10.004;2022-08-11T06:09:24;21.50;61.00
1179;DHT22;578;48.408;10.004;2022-08-11T06:11:52;22.40;58.70
1179;DHT22;578;48.408;10.004;2022-08-11T06:14:22;22.30;56.90
1179;DHT22;578;48.408;10.004;2022-08-11T06:16:55;22.60;58.80
1179;DHT22;578;48.408;10.004;2022-08-11T06:19:31;22.60;57.20
1179;DHT22;578;48.408;10.004;2022-08-11T06:21:59;23.20;56.60
1179;DHT22;578;48.408;10.004;2022-08-11T06:24:27;22.80;56.50
1179;DHT22;578;48.408;10.004;2022-08-11T06:26:57;22.50;56.40
1179;DHT22;578;48.408;10.004;2022-08-11T06:29:25;22.60;55.50
1179;DHT22;578;48.408;10.004;2022-08-11T06:31:57;22.20;55.60
1179;DHT22;578;48.408;10.004;2022-08-11T06:34:34;22.70;55.70
1179;DHT22;578;48.408;10.004;2022-08-11T06:37:22;22.60;55.20
1179;DHT22;578;48.408;10.004;2022-08-11T06:39:57;22.50;55.10
1179;DHT22;578;48.408;10.004;2022-08-11T06:42:43;22.40;54.50
1179;DHT22;578;48.408;10.004;2022-08-11T06:45:23;22.80;54.10
1179;DHT22;578;48.408;10.004;2022-08-11T06:47:53;23.30;55.20
1179;DHT22;578;48.408;10.004;2022-08-11T06:50:22;22.50;54.90
1179;DHT22;578;48.408;10.004;2022-08-11T06:53:08;22.70;55.00
1179;DHT22;578;48.408;10.004;2022-08-11T06:55:39;22.70;53.40
1179;DHT22;578;48.408;10.004;2022-08-11T06:58:39;22.50;55.50
1179;DHT22;578;48.408;10.004;2022-08-11T07:01:35;22.10;54.00
1179;DHT22;578;48.408;10.004;2022-08-11T07:04:07;22.60;56.20
1179;DHT22;578;48.408;10.004;2022-08-11T07:06:43;22.70;55.20
1179;DHT22;578;48.408;10.004;2022-08-11T07:12:57;23.00;55.30
1179;DHT22;578;48.408;10.004;2022-08-11T07:15:43;22.80;53.20
1179;DHT22;578;48.408;10.004;2022-08-11T07:18:16;23.60;53.10
1179;DHT22;578;48.408;10.004;2022-08-11T07:21:14;23.70;53.40
1179;DHT22;578;48.408;10.004;2022-08-11T07:24:01;24.40;53.30
1179;DHT22;578;48.408;10.004;2022-08-11T07:26:51;24.30;53.60
1179;DHT22;578;48.408;10.004;2022-08-11T07:29:37;24.20;51.90
1179;DHT22;578;48.408;10.004;2022-08-11T07:32:13;23.40;52.70
1179;DHT22;578;48.408;10.004;2022-08-11T07:34:46;24.50;54.00
1179;DHT22;578;48.408;10.004;2022-08-11T07:37:16;24.20;52.60
1179;DHT22;578;48.408;10.004;2022-08-11T07:39:45;24.20;52.40
1179;DHT22;578;48.408;10.004;2022-08-11T07:42:14;24.20;52.40
1179;DHT22;578;48.408;10.004;2022-08-11T07:44:43;24.60;50.50
1179;DHT22;578;48.408;10.004;2022-08-11T07:47:28;24.70;50.90
1179;DHT22;578;48.408;10.004;2022-08-11T07:50:13;24.10;50.70
1179;DHT22;578;48.408;10.004;2022-08-11T07:52:59;24.30;53.80
1179;DHT22;578;48.408;10.004;2022-08-11T07:55:26;24.30;53.00
1179;DHT22;578;48.408;10.004;2022-08-11T07:57:55;24.40;50.90
1179;DHT22;578;48.408;10.004;2022-08-11T08:00:43;24.20;52.20
1179;DHT22;578;48.408;10.004;2022-08-11T08:03:28;24.20;49.60
1179;DHT22;578;48.408;10.004;2022-08-11T08:06:13;24.60;50.00
1179;DHT22;578;48.408;10.004;2022-08-11T08:08:59;25.50;50.80
1179;DHT22;578;48.408;10.004;2022-08-11T08:11:44;25.30;49.60
1179;DHT22;578;48.408;10.004;2022-08-11T08:14:29;25.60;50.70
1179;DHT22;578;48.408;10.004;2022-08-11T08:17:14;25.30;48.70
1179;DHT22;578;48.408;10.004;2022-08-11T08:19:59;25.50;50.50
1179;DHT22;578;48.408;10.004;2022-08-11T08:22:27;24.70;48.60
1179;DHT22;578;48.408;10.004;2022-08-11T08:24:55;25.40;49.00
1179;DHT22;578;48.408;10.004;2022-08-11T08:27:22;26.40;48.90
1179;DHT22;578;48.408;10.004;2022-08-11T08:29:50;25.60;46.80
1179;DHT22;578;48.408;10.004;2022-08-11T08:32:38;26.00;49.90
1179;DHT22;578;48.408;10.004;2022-08-11T08:35:06;26.60;46.60
1179;DHT22;578;48.408;10.004;2022-08-11T08:37:33;26.20;49.80
1179;DHT22;578;48.408;10.004;2022-08-11T08:40:01;25.70;47.90
1179;DHT22;578;48.408;10.004;2022-08-11T08:42:30;26.20;47.50
1179;DHT22;578;48.408;10.004;2022-08-11T08:45:03;25.70;47.40
1179;DHT22;578;48.408;10.004;2022-08-11T08:47:34;26.90;46.20
1179;DHT22;578;48.408;10.004;2022-08-11T08:50:04;27.00;49.10
1179;DHT22;578;48.408;10.004;2022-08-11T08:52:34;26.80;45.50
1179;DHT22;578;48.408;10.004;2022-08-11T08:55:08;26.80;44.30
1179;DHT22;578;48.408;10.004;2022-08-11T08:57:36;26.90;46.00
1179;DHT22;578;48.408;10.004;2022-08-11T09:00:04;26.20;44.80
1179;DHT22;578;48.408;10.004;2022-08-11T09:02:33;26.70;48.70
1179;DHT22;578;48.408;10.004;2022-08-11T09:05:01;26.70;45.60
1179;DHT22;578;48.408;10.004;2022-08-11T09:07:28;26.10;45.20
1179;DHT22;578;48.408;10.004;2022-08-11T09:09:57;25.90;45.90
1179;DHT22;578;48.408;10.004;2022-08-11T09:12:27;26.50;46.30
1179;DHT22;578;48.408;10.004;2022-08-11T09:14:57;26.20;44.80
1179;DHT22;578;48.408;10.004;2022-08-11T09:17:30;26.80;43.60
1179;DHT22;578;48.408;10.004;2022-08-11T09:20:00;27.60;42.80
1179;DHT22;578;48.408;10.004;2022-08-11T09:22:30;27.50;43.70
1179;DHT22;578;48.408;10.004;2022-08-11T09:25:16;26.60;42.80
1179;DHT22;578;48.408;10.004;2022-08-11T09:28:03;26.30;43.50
1179;DHT22;578;48.408;10.004;2022-08-11T09:30:30;27.10;45.00
1179;DHT22;578;48.408;10.004;2022-08-11T09:32:59;26.90;43.90
1179;DHT22;578;48.408;10.004;2022-08-11T09:35:28;26.60;43.70
1179;DHT22;578;48.408;10.004;2022-08-11T09:37:56;26.60;44.50
1179;DHT22;578;48.408;10.004;2022-08-11T09:40:44;27.20;42.30
1179;DHT22;578;48.408;10.004;2022-08-11T09:43:15;27.40;42.20
1179;DHT22;578;48.408;10.004;2022-08-11T09:46:00;26.90;42.60
1179;DHT22;578;48.408;10.004;2022-08-11T09:48:30;26.80;43.30
1179;DHT22;578;48.408;10.004;2022-08-11T09:50:59;27.10;44.60
1179;DHT22;578;48.408;10.004;2022-08-11T09:53:29;27.80;43.80
1179;DHT22;578;48.408;10.004;2022-08-11T09:55:57;26.40;43.60
1179;DHT22;578;48.408;10.004;2022-08-11T09:58:25;26.50;42.50
1179;DHT22;578;48.408;10.004;2022-08-11T10:00:55;26.90;42.60
1179;DHT22;578;48.408;10.004;2022-08-11T10:03:25;28.10;42.30
1179;DHT22;578;48.408;10.004;2022-08-11T10:05:55;26.70;44.30
1179;DHT22;578;48.408;10.004;2022-08-11T10:08:42;27.60;46.30
1179;DHT22;578;48.408;10.004;2022-08-11T10:11:12;27.80;40.90
1179;DHT22;578;48.408;10.004;2022-08-11T10:13:43;27.80;40.70
1179;DHT22;578;48.408;10.004;2022-08-11T10:16:29;27.50;42.00
1179;DHT22;578;48.408;10.004;2022-08-11T10:18:58;27.40;41.60
1179;DHT22;578;48.408;10.004;2022-08-11T10:21:29;27.20;40.80
1179;DHT22;578;48.408;10.004;2022-08-11T10:24:00;27.70;41.40
1179;DHT22;578;48.408;10.004;2022-08-11T10:26:46;27.70;40.00
1179;DHT22;578;48.408;10.004;2022-08-11T10:29:22;27.30;42.40
1179;DHT22;578;48.408;10.004;2022-08-11T10:32:07;27.50;41.70
1179;DHT22;578;48.408;10.004;2022-08-11T10:34:53;27.70;41.60
1179;DHT22;578;48.408;10.004;2022-08-11T10:37:22;27.80;44.20
1179;DHT22;578;48.408;10.004;2022-08-11T10:39:50;27.90;42.20
1179;DHT22;578;48.408;10.004;2022-08-11T10:42:18;27.20;41.80
1179;DHT22;578;48.408;10.004;2022-08-11T10:45:06;27.90;43.00
1179;DHT22;578;48.408;10.004;2022-08-11T10:47:55;26.90;43.60
1179;DHT22;578;48.408;10.004;2022-08-11T10:50:22;26.90;42.50
1179;DHT22;578;48.408;10.004;2022-08-11T10:53:07;27.90;43.80
1179;DHT22;578;48.408;10.004;2022-08-11T10:55:52;27.30;41.70
1179;DHT22;578;48.408;10.004;2022-08-11T10:58:38;26.80;41.00
1179;DHT22;578;48.408;10.004;2022-08-11T11:01:14;27.10;42.30
1179;DHT22;578;48.408;10.004;2022-08-11T11:03:41;27.50;44.60
1179;DHT22;578;48.408;10.004;2022-08-11T11:06:20;27.70;42.10
1179;DHT22;578;48.408;10.004;2022-08-11T11:08:52;27.80;41.60
1179;DHT22;578;48.408;10.004;2022-08-11T11:11:24;28.20;43.50
1179;DHT22;578;48.408;10.004;2022-08-11T11:14:16;27.60;41.80
1179;DHT22;578;48.408;10.004;2022-08-11T11:17:04;27.80;43.30
1179;DHT22;578;48.408;10.004;2022-08-11T11:19:52;27.10;41.60
1179;DHT22;578;48.408;10.004;2022-08-11T11:22:20;27.90;42.90
1179;DHT22;578;48.408;10.004;2022-08-11T11:25:20;27.50;41.10
1179;DHT22;578;48.408;10.004;2022-08-11T11:27:56;27.70;43.20
1179;DHT22;578;48.408;10.004;2022-08-11T11:30:31;27.90;41.90
1179;DHT22;578;48.408;10.004;2022-08-11T11:33:09;27.60;42.50
1179;DHT22;578;48.408;10.004;2022-08-11T11:35:47;27.40;44.20
1179;DHT22;578;48.408;10.004;2022-08-11T11:38:16;26.80;40.70
1179;DHT22;578;48.408;10.004;2022-08-11T11:40:43;27.30;44.20
1179;DHT22;578;48.408;10.004;2022-08-11T11:43:32;27.10;42.40
1179;DHT22;578;48.408;10.004;2022-08-11T11:46:01;27.00;41.50
1179;DHT22;578;48.408;10.004;2022-08-11T11:48:30;27.10;41.50
1179;DHT22;578;48.408;10.004;2022-08-11T11:50:57;27.70;41.30
1179;DHT22;578;48.408;10.004;2022-08-11T11:53:25;27.10;42.20
1179;DHT22;578;48.408;10.004;2022-08-11T11:55:52;27.30;42.70
1179;DHT22;578;48.408;10.004;2022-08-11T11:58:19;27.50;41.40
1179;DHT22;578;48.408;10.004;2022-08-11T12:01:05;27.20;40.60
1179;DHT22;578;48.408;10.004;2022-08-11T12:03:51;27.30;42.50
1179;DHT22;578;48.408;10.004;2022-08-11T12:06:20;27.40;44.00
1179;DHT22;578;48.408;10.004;2022-08-11T12:08:49;27.70;40.90
1179;DHT22;578;48.408;10.004;2022-08-11T12:11:18;27.50;41.30
1179;DHT22;578;48.408;10.004;2022-08-11T12:14:05;27.30;42.30
1179;DHT22;578;48.408;10.004;2022-08-11T12:16:35;26.90;42.60
1179;DHT22;578;48.408;10.004;2022-08-11T12:19:05;27.00;43.20
1179;DHT22;578;48.408;10.004;2022-08-11T12:21:34;26.80;43.30
1179;DHT22;578;48.408;10.004;2022-08-11T12:24:02;26.90;43.00
1179;DHT22;578;48.408;10.004;2022-08-11T12:26:47;27.10;41.10
1179;DHT22;578;48.408;10.004;2022-08-11T12:29:32;27.20;40.90
1179;DHT22;578;48.408;10.004;2022-08-11T12:31:59;27.00;39.80
1179;DHT22;578;48.408;10.004;2022-08-11T12:34:27;27.30;41.50
1179;DHT22;578;48.408;10.004;2022-08-11T12:36:57;27.20;40.60
1179;DHT22;578;48.408;10.004;2022-08-11T12:39:25;27.10;40.00
1179;DHT22;578;48.408;10.004;2022-08-11T12:42:08;27.50;39.60
1179;DHT22;578;48.408;10.004;2022-08-11T12:44:54;27.40;39.60
1179;DHT22;578;48.408;10.004;2022-08-11T12:47:42;27.10;40.00
1179;DHT22;578;48.408;10.004;2022-08-11T12:50:24;27.30;39.90
1179;DHT22;578;48.408;10.004;2022-08-11T12:53:12;27.10;42.20
1179;DHT22;578;48.408;10.004;2022-08-11T12:55:40;26.80;39.00
1179;DHT22;578;48.408;10.004;2022-08-11T12:58:25;27.20;41.70
1179;DHT22;578;48.408;10.004;2022-08-11T13:00:53;27.10;39.60
1179;DHT22;578;48.408;10.004;2022-08-11T13:03:37;27.20;41.30
1179;DHT22;578;48.408;10.004;2022-08-11T13:06:24;27.00;40.20
1179;DHT22;578;48.408;10.004;2022-08-11T13:08:51;27.20;41.10
1179;DHT22;578;48.408;10.004;2022-08-11T13:11:18;26.90;40.10
1179;DHT22;578;48.408;10.004;2022-08-11T13:14:15;27.40;41.80
1179;DHT22;578;48.408;10.004;2022-08-11T13:16:43;27.40;39.90
1179;DHT22;578;48.408;10.004;2022-08-11T13:19:29;27.20;39.30
1179;DHT22;578;48.408;10.004;2022-08-11T13:21:58;27.10;40.70
1179;DHT22;578;48.408;10.004;2022-08-11T13:24:27;27.00;38.90
1179;DHT22;578;48.408;10.004;2022-08-11T13:26:57;27.10;39.90
1179;DHT22;578;48.408;10.004;2022-08-11T13:29:25;27.20;39.80
1179;DHT22;578;48.408;10.004;2022-08-11T13:31:56;27.10;38.50
1179;DHT22;578;48.408;10.004;2022-08-11T13:34:25;27.00;39.60
1179;DHT22;578;48.408;10.004;2022-08-11T13:36:53;27.10;38.70
1179;DHT22;578;48.408;10.004;2022-08-11T13:39:24;26.90;39.40
1179;DHT22;578;48.408;10.004;2022-08-11T13:41:53;27.30;39.60
1179;DHT22;578;48.408;10.004;2022-08-11T13:44:21;27.40;39.30
1179;DHT22;578;48.408;10.004;2022-08-11T13:46:48;27.50;41.40
1179;DHT22;578;48.408;10.004;2022-08-11T13:49:16;27.40;38.80
1179;DHT22;578;48.408;10.004;2022-08-11T13:51:44;27.40;41.80
1179;DHT22;578;48.408;10.004;2022-08-11T13:54:15;27.40;39.00
1179;DHT22;578;48.408;10.004;2022-08-11T13:56:46;27.20;39.80
1179;DHT22;578;48.408;10.004;2022-08-11T13:59:17;27.00;40.40
1179;DHT22;578;48.408;10.004;2022-08-11T14:01:50;27.20;38.90
1179;DHT22;578;48.408;10.004;2022-08-11T14:04:24;27.20;39.40
1179;DHT22;578;48.408;10.004;2022-08-11T14:06:53;27.20;40.00
1179;DHT22;578;48.408;10.004;2022-08-11T14:09:26;27.10;40.00
1179;DHT22;578;48.408;10.004;2022-08-11T14:11:57;27.00;41.90
1179;DHT22;578;48.408;10.004;2022-08-11T14:14:47;27.10;40.60
1179;DHT22;578;48.408;10.004;2022-08-11T14:17:16;27.00;41.30
1179;DHT22;578;48.408;10.004;2022-08-11T14:19:46;27.30;40.80
1179;DHT22;578;48.408;10.004;2022-08-11T14:22:16;27.20;39.20
1179;DHT22;578;48.408;10.004;2022-08-11T14:24:43;27.30;39.40
1179;DHT22;578;48.408;10.004;2022-08-11T14:27:16;27.20;38.30
1179;DHT22;578;48.408;10.004;2022-08-11T14:29:52;27.00;39.50
1179;DHT22;578;48.408;10.004;2022-08-11T14:32:19;27.20;39.00
1179;DHT22;578;48.408;10.004;2022-08-11T14:34:47;27.10;40.60
1179;DHT22;578;48.408;10.004;2022-08-11T14:37:21;27.20;40.20
1179;DHT22;578;48.408;10.004;2022-08-11T14:39:51;27.00;40.00
1179;DHT22;578;48.408;10.004;2022-08-11T14:42:21;27.10;41.30
1179;DHT22;578;48.408;10.004;2022-08-11T14:45:18;27.00;39.10
1179;DHT22;578;48.408;10.004;2022-08-11T14:48:04;26.80;38.00
1179;DHT22;578;48.408;10.004;2022-08-11T14:50:34;26.90;38.70
1179;DHT22;578;48.408;10.004;2022-08-11T14:53:03;27.00;39.80
1179;DHT22;578;48.408;10.004;2022-08-11T14:55:35;27.00;38.30
1179;DHT22;578;48.408;10.004;2022-08-11T14:58:23;27.00;39.00
1179;DHT22;578;48.408;10.004;2022-08-11T15:00:51;27.00;39.60
1179;DHT22;578;48.408;10.004;2022-08-11T15:03:20;27.20;38.50
1179;DHT22;578;48.408;10.004;2022-08-11T15:05:48;26.90;39.20
1179;DHT22;578;48.408;10.004;2022-08-11T15:08:16;26.90;40.20
1179;DHT22;578;48.408;10.004;2022-08-11T15:10:43;26.90;41.60
1179;DHT22;578;48.408;10.004;2022-08-11T15:13:10;27.00;42.60
1179;DHT22;578;48.408;10.004;2022-08-11T15:15:40;26.80;39.50
1179;DHT22;578;48.408;10.004;2022-08-11T15:18:27;26.90;38.70
1179;DHT22;578;48.408;10.004;2022-08-11T15:20:54;26.80;41.00
1179;DHT22;578;48.408;10.004;2022-08-11T15:23:39;26.80;38.20
1179;DHT22;578;48.408;10.004;2022-08-11T15:26:29;26.60;38.50
1179;DHT22;578;48.408;10.004;2022-08-11T15:29:11;26.70;38.00
1179;DHT22;578;48.408;10.004;2022-08-11T15:31:57;26.80;39.50
1179;DHT22;578;48.408;10.004;2022-08-11T15:34:43;26.70;40.90
1179;DHT22;578;48.408;10.004;2022-08-11T15:37:28;26.60;40.10
1179;DHT22;578;48.408;10.004;2022-08-11T15:40:05;26.60;39.10
1179;DHT22;578;48.408;10.004;2022-08-11T15:42:56;26.50;38.40
1179;DHT22;578;48.408;10.004;2022-08-11T15:45:43;26.50;38.30
1179;DHT22;578;48.408;10.004;2022-08-11T15:48:23;26.60;38.20
1179;DHT22;578;48.408;10.004;2022-08-11T15:50:55;26.50;38.10
1179;DHT22;578;48.408;10.004;2022-08-11T15:53:26;26.40;37.20
1179;DHT22;578;48.408;10.004;2022-08-11T15:55:56;26.30;37.90
1179;DHT22;578;48.408;10.004;2022-08-11T15:58:29;26.30;37.80
1179;DHT22;578;48.408;10.004;2022-08-11T16:01:14;26.20;41.90
1179;DHT22;578;48.408;10.004;2022-08-11T16:04:06;26.20;41.70
1179;DHT22;578;48.408;10.004;2022-08-11T16:06:41;26.20;41.10
1179;DHT22;578;48.408;10.004;2022-08-11T16:09:09;26.10;39.60
1179;DHT22;578;48.408;10.004;2022-08-11T16:11:38;26.10;40.70
1179;DHT22;578;48.408;10.004;2022-08-11T16:14:07;26.10;38.50
1179;DHT22;578;48.408;10.004;2022-08-11T16:17:06;26.00;40.50
1179;DHT22;578;48.408;10.004;2022-08-11T16:19:35;26.00;39.60
1179;DHT22;578;48.408;10.004;2022-08-11T16:22:07;25.80;41.00
1179;DHT22;578;48.408;10.004;2022-08-11T16:24:36;25.80;38.90
1179;DHT22;578;48.408;10.004;2022-08-11T16:27:04;25.80;37.60
1179;DHT22;578;48.408;10.004;2022-08-11T16:29:32;25.80;36.90
1179;DHT22;578;48.408;10.004;2022-08-11T16:32:04;25.70;39.10
1179;DHT22;578;48.408;10.004;2022-08-11T16:34:50;25.60;37.80
1179;DHT22;578;48.408;10.004;2022-08-11T16:37:36;25.70;38.60
1179;DHT22;578;48.408;10.004;2022-08-11T16:40:22;25.70;37.20
1179;DHT22;578;48.408;10.004;2022-08-11T16:42:50;25.70;37.60
1179;DHT22;578;48.408;10.004;2022-08-11T16:45:36;25.40;40.20
1179;DHT22;578;48.408;10.004;2022-08-11T16:48:22;25.50;37.40
1179;DHT22;578;48.408;10.004;2022-08-11T16:50:53;25.50;39.30
1179;DHT22;578;48.408;10.004;2022-08-11T16:53:21;25.50;37.70
1179;DHT22;578;48.408;10.004;2022-08-11T16:55:48;25.30;38.60
1179;DHT22;578;48.408;10.004;2022-08-11T16:58:15;25.20;40.30
1179;DHT22;578;48.408;10.004;2022-08-11T17:01:00;25.10;39.60
1179;DHT22;578;48.408;10.004;2022-08-11T17:03:29;25.00;38.90
1179;DHT22;578;48.408;10.004;2022-08-11T17:06:19;25.10;38.60
1179;DHT22;578;48.408;10.004;2022-08-11T17:09:05;25.00;37.20
1179;DHT22;578;48.408;10.004;2022-08-11T17:11:55;24.90;37.70
1179;DHT22;578;48.408;10.004;2022-08-11T17:14:44;24.80;38.90
1179;DHT22;578;48.408;10.004;2022-08-11T17:17:14;24.90;37.20
1179;DHT22;578;48.408;10.004;2022-08-11T17:19:45;24.70;41.20
1179;DHT22;578;48.408;10.004;2022-08-11T17:22:15;24.50;39.70
1179;DHT22;578;48.408;10.004;2022-08-11T17:25:02;24.70;38.10
1179;DHT22;578;48.408;10.004;2022-08-11T17:27:31;24.50;38.90
1179;DHT22;578;48.408;10.004;2022-08-11T17:30:01;24.50;39.40
1179;DHT22;578;48.408;10.004;2022-08-11T17:32:31;24.50;37.80
1179;DHT22;578;48.408;10.004;2022-08-11T17:35:20;24.30;39.10
1179;DHT22;578;48.408;10.004;2022-08-11T17:38:03;24.20;39.40
1179;DHT22;578;48.408;10.004;2022-08-11T17:40:33;24.10;40.80
1179;DHT22;578;48.408;10.004;2022-08-11T17:43:02;24.30;40.30
1179;DHT22;578;48.408;10.004;2022-08-11T17:45:47;24.20;39.80
1179;DHT22;578;48.408;10.004;2022-08-11T17:48:35;24.00;39.40
1179;DHT22;578;48.408;10.004;2022-08-11T17:51:05;23.70;41.90
1179;DHT22;578;48.408;10.004;2022-08-11T17:53:36;23.70;42.90
1179;DHT22;578;48.408;10.004;2022-08-11T17:56:22;23.50;40.50
1179;DHT22;578;48.408;10.004;2022-08-11T17:59:08;23.40;41.50
1179;DHT22;578;48.408;10.004;2022-08-11T18:01:54;23.10;44.30